Time;durP1;ratioP1;P1;durP2;ratioP2;P2;SDS_P1;SDS_P2;PMS_P1;PMS_P2;Temp;Humidity;BMP_temperature;BMP_pressure;BME280_temperature;BME280_humidity;BME280_pressure;Samples;Min_cycle;Max_cycle;Signal;HPM_P1;HPM_P2
2023/03/01 00:01:34;;;;;;;21.67;9.75;;;;;;;5.79;64.97;101281.50;4896450;29;20051;-78
2023/03/01 00:04:02;;;;;;;21.85;10.38;;;;;;;5.62;66.92;101278.59;4916829;29;20040;-78
2023/03/01 00:06:29;;;;;;;16.55;9.45;;;;;;;5.59;66.62;101278.22;4916115;29;20048;-78
2023/03/01 00:08:58;;;;;;;18.52;10.02;;;;;;;5.47;65.78;101280.91;4916486;29;20059;-78
2023/03/01 00:11:28;;;;;;;18.52;10.18;;;;;;;5.52;66.88;101275.59;4916565;29;20055;-78
2023/03/01 00:13:58;;;;;;;19.27;10.73;;;;;;;5.54;67.10;101281.66;4916243;29;20502;-78
2023/03/01 00:16:30;;;;;;;22.45;10.40;;;;;;;5.54;67.79;101269.94;4916108;29;20407;-77
2023/03/01 00:18:58;;;;;;;23.65;11.70;;;;;;;5.51;68.12;101279.38;4899988;29;20056;-78
2023/03/01 00:21:27;;;;;;;20.17;10.15;;;;;;;5.42;68.09;101272.63;4916624;29;20055;-78
2023/03/01 00:23:55;;;;;;;23.15;10.85;;;;;;;5.32;69.18;101262.28;4916314;29;20040;-78
2023/03/01 00:26:25;;;;;;;21.77;11.10;;;;;;;5.20;69.56;101256.78;4916516;29;20052;-78
2023/03/01 00:28:55;;;;;;;23.80;11.13;;;;;;;5.00;70.73;101262.44;4916721;29;20044;-78
2023/03/01 00:31:25;;;;;;;24.17;10.93;;;;;;;4.78;71.39;101252.00;4916545;29;20066;-78
2023/03/01 00:33:58;;;;;;;24.77;11.77;;;;;;;4.74;72.34;101246.22;4899100;29;20055;-78
2023/03/01 00:36:28;;;;;;;23.35;12.15;;;;;;;4.64;72.95;101240.50;4915879;29;20063;-78
2023/03/01 00:38:57;;;;;;;27.15;13.48;;;;;;;4.67;72.90;101240.88;4915502;29;20052;-77
2023/03/01 00:41:26;;;;;;;23.48;12.10;;;;;;;4.67;72.79;101246.31;4916132;29;20067;-78
2023/03/01 00:43:54;;;;;;;23.35;11.90;;;;;;;4.48;73.70;101229.16;4898757;29;20052;-78
2023/03/01 00:46:26;;;;;;;21.67;12.25;;;;;;;4.51;74.06;101238.72;4915813;29;20056;-78
2023/03/01 00:48:54;;;;;;;24.85;12.13;;;;;;;4.43;74.40;101231.72;4916470;29;20048;-78
2023/03/01 00:51:25;;;;;;;27.55;13.07;;;;;;;4.29;74.44;101233.69;4899202;29;20055;-78
2023/03/01 00:53:56;;;;;;;19.60;10.93;;;;;;;4.24;75.06;101233.53;4898571;29;20063;-78
2023/03/01 00:56:25;;;;;;;22.35;12.18;;;;;;;4.19;75.37;101239.63;4915853;29;20079;-77
2023/03/01 00:58:53;;;;;;;24.92;11.85;;;;;;;3.96;76.54;101224.78;4915896;29;20086;-78
2023/03/01 01:01:30;;;;;;;23.42;11.85;;;;;;;3.98;76.61;101230.84;4915632;29;20075;-78
2023/03/01 01:04:07;;;;;;;23.77;12.02;;;;;;;4.03;77.19;101227.47;4898677;29;20052;-78
2023/03/01 01:06:42;;;;;;;27.42;12.75;;;;;;;4.01;77.36;101233.09;4914784;29;20040;-78
2023/03/01 01:09:16;;;;;;;24.95;11.93;;;;;;;4.18;76.02;101221.72;4916124;29;20048;-78
2023/03/01 01:11:51;;;;;;;22.55;11.38;;;;;;;4.20;75.67;101214.19;4914516;29;20059;-77
2023/03/01 01:14:20;;;;;;;26.00;12.05;;;;;;;4.17;75.90;101207.31;4915774;29;20479;-76
2023/03/01 01:16:48;;;;;;;23.17;13.25;;;;;;;4.11;76.37;101212.81;4898716;29;20051;-78
2023/03/01 01:19:17;;;;;;;26.88;11.90;;;;;;;4.06;76.44;101205.34;4914549;29;20480;-78
2023/03/01 01:21:45;;;;;;;21.35;12.15;;;;;;;4.02;77.77;101196.81;4915950;29;20056;-78
2023/03/01 01:24:14;;;;;;;27.27;12.90;;;;;;;4.00;77.11;101185.38;4899249;29;20056;-78
2023/03/01 01:26:42;;;;;;;24.90;13.45;;;;;;;3.88;77.28;101184.44;4898700;29;20384;-78
2023/03/01 01:29:11;;;;;;;23.27;11.82;;;;;;;3.82;78.17;101186.13;4915197;29;20063;-78
2023/03/01 01:31:41;;;;;;;25.25;12.27;;;;;;;3.89;77.48;101181.53;4898641;29;20052;-78
2023/03/01 01:34:16;;;;;;;29.13;13.63;;;;;;;3.88;77.50;101184.44;4915410;29;20059;-78
2023/03/01 01:36:48;;;;;;;27.90;13.00;;;;;;;3.94;76.82;101180.84;4915640;29;20048;-78
2023/03/01 01:39:16;;;;;;;26.95;13.13;;;;;;;3.93;77.06;101167.53;4913850;29;20065;-78
2023/03/01 01:41:44;;;;;;;27.30;13.75;;;;;;;3.96;76.78;101167.91;4915250;29;20056;-77
2023/03/01 01:44:20;;;;;;;24.50;13.05;;;;;;;3.97;77.03;101161.44;4914555;29;20095;-78
2023/03/01 01:46:53;;;;;;;25.63;12.32;;;;;;;3.87;77.68;101166.53;4915033;29;20044;-78
2023/03/01 01:49:40;;;;;;;28.15;12.18;;;;;;;3.80;77.94;101163.06;4883156;29;20526;-78
2023/03/01 01:52:25;;;;;;;25.48;12.95;;;;;;;3.88;76.70;101155.50;4915479;29;20600;-78
2023/03/01 01:54:58;;;;;;;;;;;;;;;3.91;76.41;101151.50;4913947;29;20063;-78
2023/03/01 01:57:34;;;;;;;23.95;11.50;;;;;;;3.82;76.36;101144.72;4915659;29;19930;-78
2023/03/01 02:00:11;;;;;;;27.15;11.65;;;;;;;3.71;77.20;101147.06;4914697;29;20064;-78
2023/03/01 02:02:46;;;;;;;21.20;11.45;;;;;;;3.57;78.04;101151.75;4898140;29;20048;-78
2023/03/01 02:05:32;;;;;;;23.63;12.43;;;;;;;3.54;78.86;101140.53;4897997;29;20064;-76
2023/03/01 02:08:00;;;;;;;22.98;12.13;;;;;;;3.49;79.67;101143.91;4915257;29;20048;-78
2023/03/01 02:10:33;;;;;;;26.63;13.38;;;;;;;3.53;79.51;101141.59;4914889;29;20044;-78
2023/03/01 02:13:02;;;;;;;25.83;13.10;;;;;;;3.47;79.93;101129.78;4898671;29;20617;-78
2023/03/01 02:15:35;;;;;;;27.63;13.18;;;;;;;3.49;79.93;101131.19;4914128;29;20063;-78
2023/03/01 02:18:04;;;;;;;26.90;13.48;;;;;;;3.51;79.81;101132.88;4914468;29;20060;-77
2023/03/01 02:21:14;;;;;;;24.17;12.13;;;;;;;3.57;79.74;101118.47;4897987;29;20526;-78
2023/03/01 02:23:43;;;;;;;27.45;13.40;;;;;;;3.57;80.01;101116.56;4875970;29;20837;-78
2023/03/01 02:26:39;;;;;;;26.70;13.95;;;;;;;3.58;79.62;101120.13;4919913;29;20055;-78
2023/03/01 02:29:07;;;;;;;25.63;12.57;;;;;;;3.60;79.06;101116.13;4898579;29;20381;-78
2023/03/01 02:31:41;;;;;;;31.23;13.30;;;;;;;3.68;78.87;101115.06;4917350;29;20423;-78
2023/03/01 02:34:21;;;;;;;26.67;13.60;;;;;;;3.65;79.63;101114.66;4918500;29;20056;-78
2023/03/01 02:36:51;;;;;;;25.75;13.23;;;;;;;3.57;78.77;101110.34;4900839;29;20079;-79
2023/03/01 02:39:33;;;;;;;26.63;12.95;;;;;;;3.45;80.11;101099.38;4918610;29;20068;-78
2023/03/01 02:42:04;;;;;;;25.63;12.43;;;;;;;3.46;80.31;101101.03;4918326;29;20129;-78
2023/03/01 02:44:32;;;;;;;26.58;13.43;;;;;;;3.48;80.37;101104.38;4900968;29;20044;-78
2023/03/01 02:47:03;;;;;;;28.70;13.55;;;;;;;3.41;81.21;101098.19;4918033;29;20636;-78
2023/03/01 02:49:34;;;;;;;26.35;13.13;;;;;;;3.36;81.74;101094.25;4918128;29;20071;-78
2023/03/01 02:52:22;;;;;;;26.77;12.70;;;;;;;3.25;82.21;101077.88;4917132;29;20048;-78
2023/03/01 02:54:59;;;;;;;28.17;13.73;;;;;;;3.34;82.17;101068.47;4913709;29;20057;-78
2023/03/01 02:57:28;;;;;;;26.80;11.85;;;;;;;3.36;81.87;101075.31;4899272;29;20053;-78
2023/03/01 02:59:59;;;;;;;26.23;12.27;;;;;;;3.34;82.26;101071.97;4898646;29;20057;-78
2023/03/01 03:02:35;;;;;;;31.38;13.07;;;;;;;3.34;82.31;101073.88;4905166;29;20359;-78
2023/03/01 03:05:15;;;;;;;24.45;12.88;;;;;;;3.54;81.23;101064.75;4913686;29;20063;-78
2023/03/01 03:07:45;;;;;;;26.48;12.70;;;;;;;3.70;80.73;101072.34;4898865;29;20056;-78
2023/03/01 03:10:19;;;;;;;26.23;12.60;;;;;;;3.81;79.89;101056.41;4897040;29;20416;-78
2023/03/01 03:12:56;;;;;;;27.30;12.85;;;;;;;3.78;79.90;101062.28;4898109;29;20059;-78
2023/03/01 03:15:25;;;;;;;28.35;13.18;;;;;;;3.86;79.96;101062.00;4897368;29;20044;-78
2023/03/01 03:17:53;;;;;;;25.58;12.27;;;;;;;3.96;79.32;101067.72;4898839;29;20427;-78
2023/03/01 03:20:24;;;;;;;22.13;12.30;;;;;;;4.13;77.85;101059.00;4898927;29;20381;-78
2023/03/01 03:22:55;;;;;;;25.02;12.52;;;;;;;4.16;77.76;101072.94;4898818;29;20134;-78
2023/03/01 03:25:23;;;;;;;25.98;13.35;;;;;;;4.18;77.11;101064.59;4898807;29;20416;-78
2023/03/01 03:27:58;;;;;;;31.50;12.77;;;;;;;3.98;78.02;101060.22;4898020;29;20056;-78
2023/03/01 03:30:31;;;;;;;22.80;12.45;;;;;;;3.87;78.55;101063.66;4891094;29;20060;-78
2023/03/01 03:32:59;;;;;;;27.48;12.43;;;;;;;3.97;78.75;101061.25;4897198;29;20064;-78
2023/03/01 03:35:37;;;;;;;27.33;12.88;;;;;;;4.15;77.82;101056.91;4898410;29;20403;-78
2023/03/01 03:38:15;;;;;;;25.90;12.80;;;;;;;4.07;77.56;101059.91;4898160;29;20487;-78
2023/03/01 03:40:46;;;;;;;25.75;12.25;;;;;;;4.03;77.46;101054.97;4882012;29;20059;-78
2023/03/01 03:43:21;;;;;;;23.75;12.32;;;;;;;3.97;79.03;101063.13;4897752;29;20408;-78
2023/03/01 03:45:51;;;;;;;29.17;13.57;;;;;;;4.05;79.00;101059.31;4898623;29;20052;-78
2023/03/01 03:48:20;;;;;;;26.77;13.10;;;;;;;3.88;79.33;101059.88;4888306;29;20503;-78
2023/03/01 03:50:50;;;;;;;25.08;12.55;;;;;;;3.84;79.07;101058.66;4897763;29;20067;-78
2023/03/01 03:53:19;;;;;;;27.90;12.40;;;;;;;3.76;79.05;101060.63;4897560;29;20083;-78
2023/03/01 03:55:51;;;;;;;22.75;12.63;;;;;;;3.98;79.12;101052.09;4898137;29;20057;-78
2023/03/01 03:58:21;;;;;;;26.80;13.10;;;;;;;3.85;79.86;101049.50;4898244;29;20518;-78
2023/03/01 04:00:53;;;;;;;22.60;11.65;;;;;;;3.76;80.85;101067.91;4897249;29;20055;-78
2023/03/01 04:03:22;;;;;;;24.30;12.30;;;;;;;3.82;80.05;101053.47;4897777;29;20053;-78
2023/03/01 04:05:51;;;;;;;20.92;11.32;;;;;;;3.76;80.57;101052.50;4897401;29;20033;-78
2023/03/01 04:08:21;;;;;;;23.33;12.60;;;;;;;3.53;80.69;101052.28;4897428;29;20052;-78
2023/03/01 04:10:56;;;;;;;28.27;12.30;;;;;;;3.95;79.24;101049.81;4896711;29;20060;-78
2023/03/01 04:13:25;;;;;;;22.30;12.52;;;;;;;4.03;79.56;101046.84;4897660;29;20040;-78
2023/03/01 04:15:53;;;;;;;24.20;12.02;;;;;;;3.98;78.98;101054.78;4879071;29;20053;-78
2023/03/01 04:18:24;;;;;;;27.92;13.35;;;;;;;4.08;78.57;101045.31;4891170;29;20060;-78
2023/03/01 04:20:55;;;;;;;24.30;12.43;;;;;;;4.14;77.72;101049.81;4897435;29;20053;-78
2023/03/01 04:23:23;;;;;;;24.15;11.75;;;;;;;4.05;77.15;101041.16;4897775;29;20055;-77
2023/03/01 04:25:54;;;;;;;25.15;12.75;;;;;;;4.12;77.70;101041.09;4897891;29;20045;-78
2023/03/01 04:28:27;;;;;;;23.33;12.98;;;;;;;4.02;77.79;101050.56;4897228;29;20044;-78
2023/03/01 04:30:57;;;;;;;30.25;12.90;;;;;;;3.67;78.54;101048.41;4897507;29;20059;-78
2023/03/01 04:33:25;;;;;;;21.10;11.93;;;;;;;3.83;78.45;101046.19;4897474;29;20075;-78
2023/03/01 04:35:53;;;;;;;19.58;11.55;;;;;;;3.97;77.20;101042.28;4896822;29;20069;-78
2023/03/01 04:38:21;;;;;;;23.27;12.25;;;;;;;3.98;77.06;101037.72;4897424;29;20059;-78
2023/03/01 04:40:49;;;;;;;23.63;11.80;;;;;;;3.98;76.81;101041.25;4896863;29;20068;-78
2023/03/01 04:43:17;;;;;;;22.98;12.55;;;;;;;3.99;76.69;101048.31;4897261;29;20056;-78
2023/03/01 04:45:45;;;;;;;23.65;11.77;;;;;;;4.08;76.70;101042.59;4896495;29;20491;-78
2023/03/01 04:48:13;;;;;;;22.98;12.35;;;;;;;3.90;77.11;101038.81;4897050;29;20056;-78
2023/03/01 04:50:41;;;;;;;27.08;12.32;;;;;;;4.00;77.09;101041.00;4896563;29;20412;-78
2023/03/01 04:53:08;;;;;;;26.70;11.90;;;;;;;4.05;77.54;101038.47;4896681;29;20071;-78
2023/03/01 04:55:36;;;;;;;24.05;11.45;;;;;;;4.06;77.25;101044.72;4897265;29;20053;-78
2023/03/01 04:58:04;;;;;;;22.83;11.50;;;;;;;4.04;77.71;101042.22;4896860;29;20488;-78
2023/03/01 05:00:32;;;;;;;23.88;11.73;;;;;;;4.16;76.77;101039.63;4896820;29;20439;-78
2023/03/01 05:03:00;;;;;;;26.02;12.45;;;;;;;4.15;76.87;101046.91;4896290;29;20052;-78
2023/03/01 05:05:33;;;;;;;22.10;11.30;;;;;;;4.10;76.59;101046.75;4896508;29;20049;-78
2023/03/01 05:08:17;;;;;;;20.63;10.68;;;;;;;4.07;77.38;101051.78;4896668;29;20056;-78
2023/03/01 05:10:50;;;;;;;25.60;12.07;;;;;;;4.30;76.24;101041.09;4896733;29;20048;-78
2023/03/01 05:13:23;;;;;;;26.67;12.57;;;;;;;4.33;76.89;101039.81;4897042;29;20044;-78
2023/03/01 05:15:56;;;;;;;24.75;11.45;;;;;;;4.39;75.82;101038.06;4896798;29;20064;-78
2023/03/01 05:18:28;;;;;;;26.67;12.18;;;;;;;4.48;75.43;101030.47;4896222;29;20061;-78
2023/03/01 05:21:09;;;;;;;24.73;11.80;;;;;;;4.48;76.32;101022.34;4897033;29;20369;-78
2023/03/01 05:23:37;;;;;;;24.65;11.40;;;;;;;4.49;75.74;101029.44;4897180;29;20515;-78
2023/03/01 05:26:07;;;;;;;18.83;11.18;;;;;;;4.60;75.31;101036.78;4896846;29;20068;-78
2023/03/01 05:28:49;;;;;;;24.00;11.23;;;;;;;4.60;75.33;101028.66;4896942;29;20048;-78
2023/03/01 05:31:16;;;;;;;25.98;12.40;;;;;;;4.71;74.75;101032.47;4896875;29;20300;-77
2023/03/01 05:33:45;;;;;;;27.23;12.70;;;;;;;4.78;74.66;101024.22;4895565;29;20048;-77
2023/03/01 05:36:13;;;;;;;20.55;11.23;;;;;;;4.86;74.18;101020.38;4896907;29;20488;-77
2023/03/01 05:38:40;;;;;;;20.90;11.55;;;;;;;4.78;74.45;101030.50;4896405;29;20064;-77
2023/03/01 05:41:15;;;;;;;25.65;11.70;;;;;;;4.76;75.58;101032.63;4895572;29;20063;-77
2023/03/01 05:43:44;;;;;;;25.48;12.23;;;;;;;4.82;74.76;101037.13;4896514;29;20068;-78
2023/03/01 05:46:14;;;;;;;27.60;12.30;;;;;;;4.67;75.78;101040.25;4896482;29;20049;-78
2023/03/01 05:48:43;;;;;;;20.30;11.60;;;;;;;4.51;76.87;101036.28;4894679;29;20065;-80
2023/03/01 05:51:11;;;;;;;22.10;10.90;;;;;;;4.57;76.48;101035.38;4896298;29;20060;-77
2023/03/01 05:53:39;;;;;;;21.77;10.85;;;;;;;4.52;76.58;101029.81;4896498;29;20187;-80
2023/03/01 05:56:07;;;;;;;21.55;11.20;;;;;;;4.54;77.23;101029.56;4896489;29;20056;-76
2023/03/01 05:58:35;;;;;;;20.30;10.45;;;;;;;4.49;76.47;101027.53;4900501;29;20103;-77
2023/03/01 06:01:04;;;;;;;21.80;10.85;;;;;;;4.54;76.81;101029.56;4899239;29;20829;-79
2023/03/01 06:03:32;;;;;;;27.48;11.27;;;;;;;4.65;76.50;101030.69;4893649;29;20393;-77
2023/03/01 06:05:59;;;;;;;24.27;11.55;;;;;;;4.92;76.95;101027.59;4881939;29;20056;-80
2023/03/01 06:08:27;;;;;;;22.48;11.07;;;;;;;5.07;75.67;101028.00;4883145;29;20053;-84
2023/03/01 06:10:55;;;;;;;22.50;11.75;;;;;;;5.18;75.27;101028.25;4897566;29;20060;-80
2023/03/01 06:13:23;;;;;;;25.02;12.15;;;;;;;5.10;75.38;101024.81;4895477;29;20049;-77
2023/03/01 06:15:52;;;;;;;25.20;12.50;;;;;;;5.05;75.28;101029.28;4879964;29;20519;-81
2023/03/01 06:18:20;;;;;;;25.02;11.95;;;;;;;5.08;75.14;101029.66;4909322;29;20071;-83
2023/03/01 06:20:54;;;;;;;25.23;12.57;;;;;;;5.03;75.91;101032.22;4915985;29;20048;-82
2023/03/01 06:23:23;;;;;;;27.08;12.05;;;;;;;5.00;75.18;101038.13;4884878;29;20056;-81
2023/03/01 06:25:52;;;;;;;23.95;11.55;;;;;;;5.08;74.16;101045.13;4895427;29;20065;-80
2023/03/01 06:28:20;;;;;;;21.48;11.60;;;;;;;5.02;73.69;101036.00;4898100;29;20053;-82
2023/03/01 06:30:49;;;;;;;26.33;13.13;;;;;;;4.91;75.30;101029.50;4897548;29;20392;-80
2023/03/01 06:33:19;;;;;;;28.67;13.18;;;;;;;4.87;75.11;101024.72;4901420;29;20071;-80
2023/03/01 06:35:47;;;;;;;22.38;11.45;;;;;;;5.02;75.23;101016.16;4915493;29;20047;-81
2023/03/01 06:38:17;;;;;;;28.75;12.20;;;;;;;5.11;74.17;101014.78;4898268;29;20064;-81
2023/03/01 06:40:51;;;;;;;27.20;11.68;;;;;;;5.36;72.74;101008.34;4894179;29;20049;-79
2023/03/01 06:43:18;;;;;;;;;;;;;;;5.51;71.90;101014.16;4887662;29;20052;-79
2023/03/01 06:45:46;;;;;;;26.70;12.20;;;;;;;5.62;71.72;101023.34;4898679;29;19925;-80
2023/03/01 06:48:14;;;;;;;25.20;12.27;;;;;;;5.78;70.68;101023.72;4898991;29;20044;-81
2023/03/01 06:50:42;;;;;;;25.67;11.90;;;;;;;5.98;69.55;101017.09;4899172;29;20053;-82
2023/03/01 06:53:10;;;;;;;22.80;11.20;;;;;;;5.97;69.23;101018.97;4898204;29;20504;-81
2023/03/01 06:55:38;;;;;;;24.65;11.90;;;;;;;6.07;69.25;101012.13;4893719;29;20527;-80
2023/03/01 06:58:06;;;;;;;27.83;12.23;;;;;;;6.03;69.61;101022.66;4917459;29;20059;-80
2023/03/01 07:00:34;;;;;;;25.15;11.90;;;;;;;6.07;69.20;101029.28;4916788;29;20052;-75
2023/03/01 07:03:02;;;;;;;25.27;13.00;;;;;;;6.08;69.51;101017.34;4915562;29;20059;-75
2023/03/01 07:05:32;;;;;;;28.17;12.23;;;;;;;6.26;69.10;101026.41;4917356;29;20063;-75
2023/03/01 07:08:01;;;;;;;25.02;12.07;;;;;;;6.51;68.95;101033.44;4917151;29;20052;-75
2023/03/01 07:10:28;;;;;;;21.40;11.02;;;;;;;6.47;68.96;101024.94;4917135;29;20044;-75
2023/03/01 07:12:58;;;;;;;23.17;12.32;;;;;;;6.66;68.45;101017.44;4916737;29;20059;-76
2023/03/01 07:15:27;;;;;;;25.55;11.73;;;;;;;6.69;68.00;101025.09;4917682;29;20041;-76
2023/03/01 07:17:56;;;;;;;23.77;11.10;;;;;;;6.63;66.63;101012.47;4917568;29;20059;-76
2023/03/01 07:20:25;;;;;;;21.42;10.45;;;;;;;6.57;66.69;101018.88;4916609;29;20052;-77
2023/03/01 07:22:56;;;;;;;27.30;11.65;;;;;;;6.76;65.80;101018.66;4917154;29;20102;-76
2023/03/01 07:25:24;;;;;;;25.05;10.60;;;;;;;6.84;65.34;101021.81;4902831;29;20052;-76
2023/03/01 07:27:53;;;;;;;23.70;11.88;;;;;;;6.85;65.37;101009.06;4916531;29;20495;-77
2023/03/01 07:30:22;;;;;;;25.80;10.75;;;;;;;6.69;65.40;101006.03;4917072;29;20052;-77
2023/03/01 07:32:50;;;;;;;19.25;10.50;;;;;;;6.87;64.70;101012.34;4914443;29;20052;-77
2023/03/01 07:35:22;;;;;;;24.52;11.80;;;;;;;6.99;64.54;101017.72;4917007;29;20060;-77
2023/03/01 07:37:50;;;;;;;26.40;11.85;;;;;;;7.10;65.02;101019.56;4916268;29;20052;-77
2023/03/01 07:40:18;;;;;;;23.77;11.27;;;;;;;7.09;63.69;101011.66;4917362;29;20048;-77
2023/03/01 07:42:46;;;;;;;21.90;11.07;;;;;;;7.20;63.28;101016.19;4916615;29;20060;-77
2023/03/01 07:45:14;;;;;;;24.00;10.65;;;;;;;7.21;63.30;101011.56;4916387;29;20586;-75
2023/03/01 07:47:42;;;;;;;24.75;11.75;;;;;;;7.21;63.30;101012.41;4914589;29;20051;-75
2023/03/01 07:50:10;;;;;;;26.38;12.00;;;;;;;7.47;63.24;101004.63;4892705;29;20055;-75
2023/03/01 07:52:38;;;;;;;20.50;10.82;;;;;;;7.60;62.13;100978.97;4899244;29;20045;-75
2023/03/01 07:55:06;;;;;;;26.33;12.45;;;;;;;7.75;61.19;100972.91;4897497;29;20052;-76
2023/03/01 07:57:34;;;;;;;26.20;11.82;;;;;;;7.80;60.03;100978.44;4896562;29;20045;-77
2023/03/01 08:00:02;;;;;;;27.45;12.98;;;;;;;8.04;59.79;100971.91;4897080;29;20059;-76
2023/03/01 08:02:40;;;;;;;27.40;13.30;;;;;;;8.31;59.86;100977.44;4897865;29;20056;-76
2023/03/01 08:05:09;;;;;;;34.78;13.52;;;;;;;8.24;60.76;100971.34;4897526;29;20064;-76
2023/03/01 08:07:39;;;;;;;28.63;13.18;;;;;;;8.33;60.33;100975.25;4881132;29;20084;-76
2023/03/01 08:10:07;;;;;;;32.42;13.80;;;;;;;8.46;59.37;100967.78;4897319;29;20056;-75
2023/03/01 08:12:35;;;;;;;23.83;12.63;;;;;;;8.46;59.42;100965.06;4897498;29;20057;-75
2023/03/01 08:15:03;;;;;;;29.67;13.10;;;;;;;8.54;58.87;100958.31;4897736;29;20051;-75
2023/03/01 08:17:31;;;;;;;25.27;13.70;;;;;;;8.96;58.78;100954.09;4881144;29;20044;-76
2023/03/01 08:19:59;;;;;;;26.15;12.75;;;;;;;9.16;57.29;100947.16;4896948;29;20053;-76
2023/03/01 08:22:27;;;;;;;23.35;11.88;;;;;;;9.09;57.15;100931.00;4896881;29;20060;-76
2023/03/01 08:24:55;;;;;;;23.80;11.15;;;;;;;9.16;57.16;100920.69;4897308;29;20522;-76
2023/03/01 08:27:23;;;;;;;21.48;11.90;;;;;;;9.31;56.62;100928.16;4897207;29;20052;-76
2023/03/01 08:29:52;;;;;;;26.35;13.25;;;;;;;9.58;55.81;100940.88;4897150;29;20052;-76
2023/03/01 08:32:20;;;;;;;22.40;11.70;;;;;;;9.73;55.04;100931.13;4897623;29;20044;-76
2023/03/01 08:34:48;;;;;;;19.00;10.77;;;;;;;9.74;55.88;100940.97;4897034;29;20059;-76
2023/03/01 08:37:15;;;;;;;27.77;12.65;;;;;;;9.70;56.55;100942.59;4896697;29;20059;-76
2023/03/01 08:39:43;;;;;;;22.45;12.13;;;;;;;9.64;56.48;100941.75;4896910;29;20052;-75
2023/03/01 08:42:11;;;;;;;25.08;12.45;;;;;;;9.72;57.19;100943.16;4897079;29;20053;-76
2023/03/01 08:44:39;;;;;;;24.23;12.20;;;;;;;9.75;58.06;100943.44;4895897;29;20052;-76
2023/03/01 08:47:07;;;;;;;25.33;14.07;;;;;;;9.72;59.04;100940.44;4896783;29;20048;-76
2023/03/01 08:49:35;;;;;;;30.52;13.75;;;;;;;9.69;60.05;100922.66;4897415;29;20417;-84
2023/03/01 08:52:03;;;;;;;29.80;14.63;;;;;;;9.53;60.18;100921.72;4896334;29;20067;-84
2023/03/01 08:54:31;;;;;;;22.98;11.82;;;;;;;9.21;58.95;100928.06;4897044;29;20072;-85
2023/03/01 08:57:01;;;;;;;26.15;12.85;;;;;;;9.01;59.83;100929.56;4896563;29;20519;-85
2023/03/01 08:59:29;;;;;;;26.30;12.32;;;;;;;9.30;60.19;100920.22;4897204;29;20480;-83
2023/03/01 09:01:57;;;;;;;23.27;11.88;;;;;;;9.41;59.15;100906.38;4896512;29;20072;-84
2023/03/01 09:04:25;;;;;;;23.60;11.32;;;;;;;9.45;56.90;100894.91;4896520;29;20060;-82
2023/03/01 09:06:53;;;;;;;21.48;11.20;;;;;;;9.80;55.96;100896.19;4915834;29;20063;-85
2023/03/01 09:09:21;;;;;;;21.63;10.25;;;;;;;10.01;52.63;100902.53;4898528;29;20051;-83
2023/03/01 09:11:50;;;;;;;20.38;9.82;;;;;;;10.51;50.98;100906.81;4914133;29;20051;-86
2023/03/01 09:14:18;;;;;;;15.98;8.75;;;;;;;10.65;50.40;100898.88;4914911;29;20048;-83
2023/03/01 09:16:46;;;;;;;17.98;9.25;;;;;;;10.81;49.50;100903.25;4914873;29;20052;-80
2023/03/01 09:19:14;;;;;;;15.60;8.07;;;;;;;10.80;48.74;100889.84;4915917;29;20051;-80
2023/03/01 09:21:51;;;;;;;15.90;7.82;;;;;;;10.37;49.77;100877.22;4915629;29;20045;-83
2023/03/01 09:24:22;;;;;;;16.95;7.40;;;;;;;10.45;49.15;100887.63;4917661;29;20411;-84
2023/03/01 09:26:52;;;;;;;15.15;8.60;;;;;;;10.18;49.16;100880.44;4915160;29;20044;-85
2023/03/01 09:29:21;;;;;;;15.65;8.38;;;;;;;10.46;48.75;100896.69;4915248;29;20064;-85
2023/03/01 09:31:48;;;;;;;18.80;9.45;;;;;;;10.46;49.49;100902.16;4915708;29;20052;-88
2023/03/01 09:34:22;;;;;;;20.13;9.77;;;;;;;10.46;50.72;100892.00;4919434;29;20067;-79
2023/03/01 09:36:51;;;;;;;19.17;9.23;;;;;;;10.44;52.49;100888.75;4918693;29;20071;-80
2023/03/01 09:39:20;;;;;;;21.10;10.73;;;;;;;10.44;52.99;100883.25;4919071;29;20056;-81
2023/03/01 09:42:04;;;;;;;21.33;10.65;;;;;;;10.35;53.54;100882.13;4918823;29;20075;-80
2023/03/01 09:44:45;;;;;;;18.25;10.05;;;;;;;10.43;54.12;100875.31;4889282;29;20500;-80
2023/03/01 09:47:35;;;;;;;20.33;10.52;;;;;;;10.60;53.37;100888.72;4881071;29;20053;-80
2023/03/01 09:50:09;;;;;;;22.80;9.48;;;;;;;10.58;52.37;100872.63;4880276;29;20075;-80
2023/03/01 09:52:44;;;;;;;18.02;9.52;;;;;;;10.64;53.00;100857.00;4881050;29;20060;-80
2023/03/01 09:55:29;;;;;;;19.92;10.07;;;;;;;10.97;51.52;100852.06;4880949;29;20064;-80
2023/03/01 09:58:41;;;;;;;20.23;9.80;;;;;;;10.96;51.46;100850.41;4881128;29;20053;-80
2023/03/01 10:01:39;;;;;;;20.70;10.55;;;;;;;10.85;51.43;100855.06;4881477;29;20045;-81
2023/03/01 10:04:29;;;;;;;21.45;11.38;;;;;;;10.92;50.96;100849.34;4893101;29;20401;-82
2023/03/01 10:07:06;;;;;;;18.42;9.40;;;;;;;10.19;52.69;100851.19;4880742;29;20064;-81
2023/03/01 10:09:37;;;;;;;22.08;10.73;;;;;;;10.33;53.39;100848.75;4881865;29;20053;-82
2023/03/01 10:12:23;;;;;;;27.98;12.57;;;;;;;10.28;54.98;100846.00;4881141;29;20515;-83
2023/03/01 10:14:53;;;;;;;21.77;11.35;;;;;;;10.25;55.30;100846.53;4898591;29;20067;-76
2023/03/01 10:17:34;;;;;;;21.70;11.15;;;;;;;10.20;55.89;100848.19;4918628;29;20067;-75
2023/03/01 10:20:17;;;;;;;20.25;10.48;;;;;;;10.45;55.63;100860.28;4916220;29;20530;-75
2023/03/01 10:22:50;;;;;;;18.17;9.93;;;;;;;10.48;56.12;100850.72;4917390;29;20060;-75
2023/03/01 10:25:41;;;;;;;22.30;10.93;;;;;;;10.08;56.23;100847.63;4918547;29;20487;-75
2023/03/01 10:28:22;;;;;;;25.70;11.73;;;;;;;10.27;55.65;100844.34;4918591;29;20051;-75
2023/03/01 10:30:50;;;;;;;22.95;11.32;;;;;;;10.43;55.19;100853.44;4918468;29;20060;-75
2023/03/01 10:33:24;;;;;;;21.50;11.68;;;;;;;10.88;53.81;100840.84;4901177;29;20056;-76
2023/03/01 10:35:53;;;;;;;22.92;11.88;;;;;;;10.62;53.49;100842.78;4917845;29;20056;-75
2023/03/01 10:38:21;;;;;;;27.35;12.60;;;;;;;10.95;53.50;100837.81;4917983;29;20048;-75
2023/03/01 10:40:58;;;;;;;28.17;13.60;;;;;;;10.94;53.14;100830.69;4918197;29;20055;-75
2023/03/01 10:43:40;;;;;;;20.15;10.80;;;;;;;10.93;52.79;100823.59;4916993;29;20368;-76
2023/03/01 10:46:27;;;;;;;22.48;10.88;;;;;;;11.07;51.49;100815.63;4918197;29;20047;-75
2023/03/01 10:49:07;;;;;;;22.65;11.23;;;;;;;11.28;51.03;100829.25;4918264;29;20048;-75
2023/03/01 10:51:40;;;;;;;25.27;11.65;;;;;;;11.48;50.99;100828.38;4918082;29;20063;-75
2023/03/01 10:54:28;;;;;;;21.05;9.82;;;;;;;11.58;50.26;100830.25;4917650;29;20400;-75
2023/03/01 10:57:02;;;;;;;23.83;12.10;;;;;;;11.50;50.58;100823.44;4917676;29;20064;-75
2023/03/01 10:59:35;;;;;;;27.10;12.45;;;;;;;11.52;50.53;100829.44;4917385;29;20400;-75
2023/03/01 11:02:09;;;;;;;19.63;11.73;;;;;;;11.95;50.32;100820.75;4909819;29;20040;-75
2023/03/01 11:05:12;;;;;;;22.83;10.45;;;;;;;11.85;48.10;100817.22;4894629;29;20057;-75
2023/03/01 11:07:53;;;;;;;20.70;10.68;;;;;;;12.19;48.66;100819.25;4878169;29;20045;-75
2023/03/01 11:10:24;;;;;;;25.55;12.45;;;;;;;12.23;49.04;100823.88;4880203;29;20401;-75
2023/03/01 11:12:53;;;;;;;24.73;12.20;;;;;;;12.52;49.62;100826.97;4880037;29;20041;-75
2023/03/01 11:15:29;;;;;;;26.80;13.93;;;;;;;12.76;48.06;100827.06;4880148;29;20069;-76
2023/03/01 11:17:57;;;;;;;28.98;12.50;;;;;;;12.98;47.21;100834.81;4879965;29;20057;-75
2023/03/01 11:20:41;;;;;;;20.58;11.43;;;;;;;11.81;48.70;100826.03;4879531;29;20055;-77
2023/03/01 11:23:12;;;;;;;25.10;12.10;;;;;;;12.24;49.12;100821.97;4879904;29;20397;-77
2023/03/01 11:25:43;;;;;;;30.00;11.88;;;;;;;12.27;48.35;100837.84;4879978;29;20057;-77
2023/03/01 11:28:17;;;;;;;20.13;11.27;;;;;;;12.05;51.24;100835.53;4879865;29;20508;-76
2023/03/01 11:30:54;;;;;;;;;;;;;;;12.20;48.84;100849.16;4894642;29;20052;-76
2023/03/01 11:33:49;;;;;;;23.75;11.65;;;;;;;11.95;50.21;100844.59;4878539;29;19924;-76
2023/03/01 11:36:26;;;;;;;22.08;11.15;;;;;;;11.67;49.85;100846.94;4879835;29;20041;-76
2023/03/01 11:38:56;;;;;;;22.77;11.13;;;;;;;11.44;50.61;100838.22;4879725;29;20053;-76